Time;durP1;ratioP1;P1;durP2;ratioP2;P2;SDS_P1;SDS_P2;PMS_P1;PMS_P2;Temp;Humidity;BMP_temperature;BMP_pressure;BME280_temperature;BME280_humidity;BME280_pressure;Samples;Min_cycle;Max_cycle;Signal;HPM_P1;HPM_P2
2022/11/19 00:01:39;;;;;;;146.27;19.50;;;9.00;99.90;;;;;;4244226;28;20046;-86
2022/11/19 00:03:59;;;;;;;125.40;17.23;;;9.00;99.90;;;;;;4247970;28;20046;-86
2022/11/19 00:06:21;;;;;;;34.85;12.30;;;8.90;99.90;;;;;;4237752;28;20196;-86
2022/11/19 00:08:41;;;;;;;63.53;14.45;;;8.90;99.90;;;;;;4245639;28;20118;-86
2022/11/19 00:11:09;;;;;;;85.82;13.60;;;8.90;99.90;;;;;;4247663;28;20064;-86
2022/11/19 00:13:29;;;;;;;17.52;14.20;;;8.90;99.90;;;;;;4234057;28;20047;-85
2022/11/19 00:15:49;;;;;;;51.10;13.85;;;8.90;99.90;;;;;;4233668;28;20074;-86
2022/11/19 00:18:09;;;;;;;45.63;14.52;;;8.90;99.90;;;;;;4249387;28;20141;-86
2022/11/19 00:20:29;;;;;;;18.10;13.82;;;8.90;99.90;;;;;;4235534;28;20043;-86
2022/11/19 00:22:54;;;;;;;81.85;17.35;;;8.80;99.90;;;;;;4246982;28;20072;-86
2022/11/19 00:25:14;;;;;;;52.72;13.13;;;8.90;99.90;;;;;;4234630;28;20086;-86
2022/11/19 00:27:33;;;;;;;16.95;14.55;;;8.90;99.90;;;;;;4235082;28;20397;-86
2022/11/19 00:29:53;;;;;;;51.50;16.40;;;9.00;99.90;;;;;;4248442;28;20047;-86
2022/11/19 00:32:13;;;;;;;37.85;14.32;;;9.00;99.90;;;;;;4233700;28;20051;-86
2022/11/19 00:34:33;;;;;;;22.20;12.82;;;9.00;99.90;;;;;;4236611;28;20054;-85
2022/11/19 00:36:53;;;;;;;14.23;12.93;;;9.00;99.90;;;;;;4246353;28;20264;-86
2022/11/19 00:39:12;;;;;;;14.38;13.00;;;9.10;99.90;;;;;;4245812;28;20081;-86
2022/11/19 00:41:33;;;;;;;76.28;14.68;;;9.20;99.90;;;;;;4231780;28;20099;-86
2022/11/19 00:43:53;;;;;;;84.18;14.20;;;9.00;99.90;;;;;;4248608;28;20373;-85
2022/11/19 00:46:24;;;;;;;25.15;13.10;;;9.00;99.90;;;;;;4238662;28;20057;-86
2022/11/19 00:48:45;;;;;;;57.78;12.48;;;9.10;99.90;;;;;;4251508;28;20222;-86
2022/11/19 00:51:06;;;;;;;41.72;13.90;;;9.10;99.90;;;;;;4252813;27;20046;-85
2022/11/19 00:53:26;;;;;;;72.50;16.17;;;9.00;99.90;;;;;;4248374;28;20357;-86
2022/11/19 00:55:46;;;;;;;65.63;14.90;;;9.00;99.90;;;;;;4234291;28;20046;-86
2022/11/19 00:58:06;;;;;;;44.25;14.05;;;9.00;99.90;;;;;;4247433;28;20052;-85
2022/11/19 01:00:26;;;;;;;32.65;12.88;;;9.00;99.90;;;;;;4248024;28;20055;-85
2022/11/19 01:02:46;;;;;;;104.07;17.08;;;9.00;99.90;;;;;;4243603;28;20364;-85
2022/11/19 01:05:06;;;;;;;57.63;14.40;;;8.90;99.90;;;;;;4239830;28;20064;-86
2022/11/19 01:07:26;;;;;;;34.40;12.88;;;8.90;99.90;;;;;;4243883;28;20055;-85
2022/11/19 01:09:46;;;;;;;33.80;13.98;;;9.00;99.90;;;;;;4247876;28;20353;-86
2022/11/19 01:12:06;;;;;;;31.10;14.75;;;9.00;99.90;;;;;;4249421;28;20100;-86
2022/11/19 01:14:26;;;;;;;38.88;14.80;;;9.00;99.90;;;;;;4228104;28;20112;-85
2022/11/19 01:16:45;;;;;;;17.95;13.80;;;8.90;99.90;;;;;;4239349;28;20042;-85
2022/11/19 01:19:07;;;;;;;13.23;11.93;;;8.90;99.90;;;;;;4249815;28;20062;-86
2022/11/19 01:21:30;;;;;;;69.25;14.55;;;9.00;99.90;;;;;;4242034;28;20092;-86
2022/11/19 01:23:50;;;;;;;211.93;18.92;;;9.00;99.90;;;;;;4235772;28;20039;-86
2022/11/19 01:26:12;;;;;;;18.80;13.55;;;8.90;99.90;;;;;;4242787;28;20046;-85
2022/11/19 01:28:32;;;;;;;97.10;15.23;;;9.10;99.90;;;;;;4240044;28;20134;-86
2022/11/19 01:30:52;;;;;;;99.38;14.18;;;9.10;99.90;;;;;;4245449;28;20333;-85
2022/11/19 01:33:12;;;;;;;53.78;11.98;;;8.90;99.90;;;;;;4239107;28;20412;-86
2022/11/19 01:35:33;;;;;;;40.50;11.40;;;8.90;99.90;;;;;;4235331;28;20050;-86
2022/11/19 01:37:53;;;;;;;36.13;11.20;;;8.90;99.90;;;;;;4230608;28;20098;-86
2022/11/19 01:40:14;;;;;;;18.02;11.38;;;8.90;99.90;;;;;;4248529;28;20399;-86
2022/11/19 01:42:49;;;;;;;19.60;10.45;;;9.00;99.90;;;;;;4249540;28;20047;-86
2022/11/19 01:45:30;;;;;;;19.17;9.70;;;8.90;99.90;;;;;;4237582;28;20389;-86
2022/11/19 01:47:53;;;;;;;28.38;11.35;;;8.90;99.90;;;;;;4246824;28;20085;-85
2022/11/19 01:50:13;;;;;;;38.80;11.32;;;9.00;99.90;;;;;;4245718;28;20088;-85
2022/11/19 01:52:33;;;;;;;31.67;11.48;;;9.00;99.90;;;;;;4244892;28;20389;-86
2022/11/19 01:54:54;;;;;;;30.45;11.52;;;8.90;99.90;;;;;;4245492;28;20043;-86
2022/11/19 01:57:16;;;;;;;18.05;10.63;;;8.90;99.90;;;;;;4245828;28;20084;-85
2022/11/19 01:59:38;;;;;;;20.23;12.55;;;9.00;99.90;;;;;;4244109;28;20246;-86
2022/11/19 02:01:58;;;;;;;13.02;11.82;;;9.00;99.90;;;;;;4237853;28;20377;-86
2022/11/19 02:04:19;;;;;;;14.32;12.98;;;9.00;99.90;;;;;;4241010;28;20074;-86
2022/11/19 02:06:41;;;;;;;13.73;11.60;;;9.10;99.90;;;;;;4247338;28;20054;-86
2022/11/19 02:09:01;;;;;;;18.83;12.82;;;9.10;99.90;;;;;;4232771;28;20062;-86
2022/11/19 02:11:36;;;;;;;144.60;13.32;;;9.10;99.90;;;;;;4236498;28;20393;-86
2022/11/19 02:14:16;;;;;;;139.63;12.45;;;9.00;99.90;;;;;;4241418;28;20043;-86
2022/11/19 02:17:03;;;;;;;103.40;11.85;;;9.00;99.90;;;;;;4236059;28;20115;-86
2022/11/19 02:19:34;;;;;;;9.98;9.20;;;9.00;99.90;;;;;;4230846;28;20411;-86
2022/11/19 02:22:03;;;;;;;26.45;9.60;;;9.10;99.90;;;;;;4249619;28;20054;-86
2022/11/19 02:24:55;;;;;;;10.05;9.05;;;9.10;99.90;;;;;;4235347;28;20043;-86
2022/11/19 02:27:46;;;;;;;15.00;8.18;;;9.00;99.90;;;;;;4243193;28;20118;-86
2022/11/19 02:30:17;;;;;;;26.45;9.77;;;9.00;99.90;;;;;;4246763;28;20042;-86
2022/11/19 02:33:09;;;;;;;16.67;9.60;;;9.00;99.90;;;;;;4250359;28;20386;-86
2022/11/19 02:35:54;;;;;;;10.70;9.70;;;8.90;99.90;;;;;;4233680;28;20050;-86
2022/11/19 02:38:19;;;;;;;15.45;9.73;;;9.00;99.90;;;;;;4246193;28;20041;-86
2022/11/19 02:40:47;;;;;;;34.25;8.43;;;9.00;99.90;;;;;;4233208;28;20363;-85
2022/11/19 02:43:18;;;;;;;9.50;8.27;;;8.90;99.90;;;;;;4248930;28;20100;-86
2022/11/19 02:45:43;;;;;;;26.13;9.63;;;8.90;99.90;;;;;;4241388;28;20055;-86
2022/11/19 02:48:23;;;;;;;9.70;8.15;;;8.90;99.90;;;;;;4234224;28;20071;-86
2022/11/19 02:50:53;;;;;;;9.18;8.55;;;8.90;99.90;;;;;;4250285;28;20100;-86
2022/11/19 02:53:13;;;;;;;9.15;8.27;;;8.90;99.90;;;;;;4243122;28;20108;-86
2022/11/19 02:55:35;;;;;;;15.25;9.07;;;9.00;99.90;;;;;;4248737;28;20042;-86
2022/11/19 03:04:28;;;;;;;9.98;8.98;;;9.00;99.90;;;;;;4237640;28;20038;-86
2022/11/19 03:06:14;;;;;;;7.82;7.32;;;8.80;99.90;;;;;;4249097;28;20114;-86
2022/11/19 03:08:34;;;;;;;10.90;7.65;;;8.90;99.90;;;;;;4247981;28;20118;-86
2022/11/19 03:11:13;;;;;;;13.13;6.55;;;8.80;99.90;;;;;;4251176;28;20049;-86
2022/11/19 03:16:41;;;;;;;7.35;6.65;;;8.90;99.90;;;;;;4243594;28;20227;-86
2022/11/19 03:19:09;;;;;;;8.75;6.82;;;8.90;99.90;;;;;;4248410;28;20092;-86
2022/11/19 03:21:46;;;;;;;13.88;8.15;;;9.00;99.90;;;;;;4233876;28;20115;-86
2022/11/19 03:24:15;;;;;;;10.13;8.70;;;8.90;99.90;;;;;;4249842;28;20042;-85
2022/11/19 03:26:47;;;;;;;14.23;9.32;;;8.90;99.90;;;;;;4250454;27;20066;-86
2022/11/19 03:29:10;;;;;;;15.02;8.80;;;8.80;99.90;;;;;;4249387;28;20222;-86
2022/11/19 03:31:33;;;;;;;20.00;10.43;;;8.90;99.90;;;;;;4247048;28;20083;-85
2022/11/19 03:33:58;;;;;;;16.55;10.25;;;8.80;99.90;;;;;;4230570;28;20039;-85
2022/11/19 03:36:44;;;;;;;20.48;10.20;;;8.80;99.90;;;;;;4243758;28;20047;-85
2022/11/19 03:39:17;;;;;;;15.38;11.27;;;8.80;99.90;;;;;;4237146;28;20390;-86
2022/11/19 03:41:40;;;;;;;18.83;11.13;;;8.80;99.90;;;;;;4247374;28;20265;-86
2022/11/19 03:44:07;;;;;;;17.27;12.98;;;8.80;99.90;;;;;;4232066;28;20047;-86
2022/11/19 03:46:30;;;;;;;24.75;11.60;;;8.80;99.90;;;;;;4246827;28;20115;-86
2022/11/19 03:48:53;;;;;;;15.60;12.45;;;8.90;99.90;;;;;;4244213;28;20035;-86
2022/11/19 03:51:23;;;;;;;17.75;11.60;;;8.90;99.90;;;;;;4234399;28;20374;-86
2022/11/19 03:53:43;;;;;;;25.60;12.23;;;8.90;99.90;;;;;;4239686;28;20097;-86
2022/11/19 03:56:07;;;;;;;42.38;12.20;;;8.90;99.90;;;;;;4248497;28;20227;-86
2022/11/19 03:58:28;;;;;;;27.40;12.48;;;8.80;99.90;;;;;;4239009;28;20125;-86
2022/11/19 04:00:48;;;;;;;22.40;11.30;;;8.90;99.90;;;;;;4248775;28;20235;-85
2022/11/19 04:03:08;;;;;;;19.65;13.13;;;8.90;99.90;;;;;;4250113;28;20227;-85
2022/11/19 04:05:28;;;;;;;15.30;12.80;;;8.90;99.90;;;;;;4235036;28;20239;-85
2022/11/19 04:07:48;;;;;;;19.85;12.68;;;8.90;99.90;;;;;;4249830;28;20406;-85
2022/11/19 04:10:08;;;;;;;18.50;12.32;;;8.90;99.90;;;;;;4246627;28;20042;-86
2022/11/19 04:12:28;;;;;;;19.02;11.73;;;8.90;99.90;;;;;;4250084;28;20047;-86
2022/11/19 04:14:49;;;;;;;13.30;11.15;;;9.00;99.90;;;;;;4247283;28;20045;-86
2022/11/19 04:17:09;;;;;;;12.90;10.43;;;9.00;99.90;;;;;;4247172;28;20053;-86
2022/11/19 04:19:28;;;;;;;11.50;9.90;;;9.00;99.90;;;;;;4240502;28;20051;-86
2022/11/19 04:21:49;;;;;;;12.02;10.90;;;9.00;99.90;;;;;;4246481;28;20078;-85
2022/11/19 04:24:09;;;;;;;17.92;12.43;;;8.90;99.90;;;;;;4244919;28;20058;-85
2022/11/19 04:26:29;;;;;;;17.50;11.55;;;8.90;99.90;;;;;;4241704;28;20051;-86
2022/11/19 04:28:48;;;;;;;21.15;11.27;;;8.90;99.90;;;;;;4234181;28;20096;-85
2022/11/19 04:31:08;;;;;;;18.45;11.07;;;8.90;99.90;;;;;;4239143;28;20077;-86
2022/11/19 04:33:34;;;;;;;17.95;11.05;;;8.90;99.90;;;;;;4251626;28;20042;-85
2022/11/19 04:35:54;;;;;;;17.00;11.93;;;8.90;99.90;;;;;;4245835;28;20358;-86
2022/11/19 04:38:14;;;;;;;14.20;10.68;;;8.90;99.90;;;;;;4247471;28;20051;-85
2022/11/19 04:40:34;;;;;;;12.73;10.75;;;8.90;99.90;;;;;;4243523;28;20085;-86
2022/11/19 04:42:53;;;;;;;12.50;10.85;;;8.90;99.90;;;;;;4230172;28;20050;-86
2022/11/19 04:45:13;;;;;;;24.23;13.27;;;8.90;99.90;;;;;;4243229;28;20112;-86
2022/11/19 04:47:32;;;;;;;20.92;14.35;;;8.90;99.90;;;;;;4248658;28;20042;-85
2022/11/19 04:49:53;;;;;;;18.92;13.02;;;8.90;99.90;;;;;;4242898;28;20057;-86
2022/11/19 04:52:13;;;;;;;17.92;10.10;;;9.00;99.90;;;;;;4245049;28;20076;-86
2022/11/19 04:54:33;;;;;;;16.90;9.45;;;9.00;99.90;;;;;;4232383;28;20047;-86
2022/11/19 04:56:52;;;;;;;16.77;8.40;;;8.90;99.90;;;;;;4233662;28;20081;-86
2022/11/19 04:59:12;;;;;;;17.33;10.05;;;8.90;99.90;;;;;;4248175;28;20050;-86
2022/11/19 05:01:32;;;;;;;18.38;8.82;;;8.90;99.90;;;;;;4239853;28;20085;-86
2022/11/19 05:03:52;;;;;;;14.88;8.98;;;9.00;99.90;;;;;;4248633;28;20061;-86
2022/11/19 05:06:12;;;;;;;12.30;8.95;;;8.90;99.90;;;;;;4245454;28;20050;-86
2022/11/19 05:08:32;;;;;;;12.05;10.52;;;8.90;99.90;;;;;;4243968;28;20086;-86
2022/11/19 05:10:52;;;;;;;16.80;8.80;;;8.90;99.90;;;;;;4244876;28;20226;-86
2022/11/19 05:13:12;;;;;;;18.63;10.55;;;9.00;99.90;;;;;;4238599;28;20085;-86
2022/11/19 05:15:32;;;;;;;18.88;9.35;;;9.00;99.90;;;;;;4230908;28;20093;-85
2022/11/19 05:17:52;;;;;;;18.88;10.52;;;9.00;99.90;;;;;;4245968;28;20050;-85
2022/11/19 05:20:12;;;;;;;13.90;9.93;;;8.90;99.90;;;;;;4230256;28;20074;-85
2022/11/19 05:22:32;;;;;;;186.13;17.10;;;8.90;99.90;;;;;;4244823;28;20070;-86
2022/11/19 05:24:52;;;;;;;15.30;9.88;;;8.90;99.90;;;;;;4243914;28;20107;-86
2022/11/19 05:27:11;;;;;;;17.38;9.77;;;8.90;99.90;;;;;;4247405;28;20235;-85
2022/11/19 05:29:31;;;;;;;10.85;9.85;;;8.90;99.90;;;;;;4247425;28;20113;-86
2022/11/19 05:31:51;;;;;;;12.90;9.70;;;9.00;99.90;;;;;;4238529;28;20042;-86
2022/11/19 05:34:11;;;;;;;25.67;9.23;;;8.90;99.90;;;;;;4235987;28;20135;-86
2022/11/19 05:36:30;;;;;;;24.40;10.05;;;8.90;99.90;;;;;;4248296;28;20064;-86
2022/11/19 05:38:50;;;;;;;91.38;12.55;;;8.90;99.90;;;;;;4234369;28;20042;-86
2022/11/19 05:41:10;;;;;;;109.10;12.70;;;9.00;99.90;;;;;;4249665;28;20234;-85
2022/11/19 05:43:30;;;;;;;83.97;13.88;;;8.90;99.90;;;;;;4241590;28;20072;-86
2022/11/19 05:45:49;;;;;;;13.15;10.52;;;8.90;99.90;;;;;;4244028;28;20369;-85
2022/11/19 05:48:09;;;;;;;38.22;11.20;;;9.00;99.90;;;;;;4245516;28;20234;-85
2022/11/19 05:50:30;;;;;;;13.13;11.70;;;8.90;99.90;;;;;;4246151;28;20050;-86
2022/11/19 05:52:50;;;;;;;16.73;11.45;;;8.90;99.90;;;;;;4236854;28;20281;-85
2022/11/19 05:55:10;;;;;;;20.42;11.52;;;8.90;99.90;;;;;;4253526;28;20231;-86
2022/11/19 05:57:29;;;;;;;19.00;12.00;;;8.90;99.90;;;;;;4251222;28;20103;-86
2022/11/19 05:59:49;;;;;;;21.05;12.55;;;8.90;99.90;;;;;;4245759;28;20247;-85
2022/11/19 06:02:09;;;;;;;47.35;13.35;;;8.90;99.90;;;;;;4241236;28;20119;-85
2022/11/19 06:04:29;;;;;;;66.10;15.70;;;8.90;99.90;;;;;;4251444;28;20050;-85
2022/11/19 06:06:49;;;;;;;86.93;13.48;;;8.90;99.90;;;;;;4248579;28;20050;-85
2022/11/19 06:09:09;;;;;;;95.97;11.43;;;8.90;99.90;;;;;;4241438;28;20082;-86
2022/11/19 06:11:46;;;;;;;50.95;10.52;;;8.90;99.90;;;;;;4245396;28;20061;-85
2022/11/19 06:14:06;;;;;;;12.75;9.57;;;8.90;99.90;;;;;;4248679;28;20038;-86
2022/11/19 06:16:27;;;;;;;28.13;11.55;;;8.90;99.90;;;;;;4248524;28;20156;-86
2022/11/19 06:18:47;;;;;;;49.10;10.73;;;8.90;99.90;;;;;;4253760;28;20264;-85
2022/11/19 06:21:06;;;;;;;44.72;10.50;;;8.90;99.90;;;;;;4244872;28;20071;-86
2022/11/19 06:23:31;;;;;;;102.80;13.10;;;8.90;99.90;;;;;;4234751;28;20369;-85
2022/11/19 06:25:53;;;;;;;113.43;13.27;;;8.80;99.90;;;;;;4244163;28;20050;-85
2022/11/19 06:28:13;;;;;;;56.85;12.27;;;8.80;99.90;;;;;;4248750;28;20069;-86
2022/11/19 06:30:33;;;;;;;45.60;10.13;;;8.80;99.90;;;;;;4245916;28;20265;-85
2022/11/19 06:32:52;;;;;;;34.65;12.73;;;8.80;99.90;;;;;;4251359;28;20332;-84
2022/11/19 06:35:12;;;;;;;39.75;13.45;;;8.80;99.90;;;;;;4249322;28;20272;-84
2022/11/19 06:37:33;;;;;;;104.53;16.08;;;8.80;99.90;;;;;;4249828;28;20070;-83
2022/11/19 06:39:54;;;;;;;24.40;10.90;;;8.90;99.90;;;;;;4252814;28;20265;-84
2022/11/19 06:44:53;;;;;;;19.33;10.68;;;8.90;99.90;;;;;;4248222;28;20070;-84
2022/11/19 06:47:13;;;;;;;23.88;9.45;;;8.90;99.90;;;;;;4249344;28;20058;-84
2022/11/19 06:49:33;;;;;;;42.28;11.73;;;8.90;99.90;;;;;;4251332;27;20047;-84
2022/11/19 06:51:53;;;;;;;21.75;10.35;;;8.90;99.90;;;;;;4251795;28;20046;-84
2022/11/19 06:54:13;;;;;;;29.98;9.52;;;8.90;99.90;;;;;;4231914;28;20050;-84
2022/11/19 06:56:33;;;;;;;29.48;10.43;;;8.90;99.90;;;;;;4249545;28;20077;-84
2022/11/19 06:58:56;;;;;;;29.75;10.07;;;8.90;99.90;;;;;;4243984;28;20147;-84
2022/11/19 07:01:16;;;;;;;28.92;10.35;;;8.90;99.90;;;;;;4246962;28;20038;-84
2022/11/19 07:03:36;;;;;;;18.92;9.38;;;8.90;99.90;;;;;;4249948;28;20369;-84
2022/11/19 07:06:00;;;;;;;30.58;10.40;;;8.90;99.90;;;;;;4242905;28;20054;-84
2022/11/19 07:08:20;;;;;;;20.25;9.27;;;9.00;99.90;;;;;;4245049;28;20043;-84
2022/11/19 07:10:40;;;;;;;25.98;10.88;;;9.00;99.90;;;;;;4245435;28;20088;-84
2022/11/19 07:13:00;;;;;;;15.05;10.18;;;9.00;99.90;;;;;;4252165;28;20406;-84
2022/11/19 07:15:20;;;;;;;26.42;9.20;;;9.00;99.90;;;;;;4244673;28;20070;-84
2022/11/19 07:17:41;;;;;;;11.85;9.75;;;9.00;99.90;;;;;;4242601;28;20054;-84
2022/11/19 07:20:01;;;;;;;18.35;9.13;;;8.90;99.90;;;;;;4250369;28;20062;-84
2022/11/19 07:22:21;;;;;;;19.40;8.95;;;9.00;99.90;;;;;;4248374;28;20043;-84
2022/11/19 07:24:41;;;;;;;19.17;9.18;;;9.00;99.90;;;;;;4244794;28;20081;-84
2022/11/19 07:27:01;;;;;;;13.95;8.55;;;9.00;99.90;;;;;;4247190;27;20050;-84
2022/11/19 07:29:21;;;;;;;12.25;9.23;;;9.00;99.90;;;;;;4244945;28;20047;-85
2022/11/19 07:31:42;;;;;;;19.15;10.35;;;9.00;99.90;;;;;;4249317;28;20045;-84
2022/11/19 07:34:05;;;;;;;17.30;8.93;;;9.00;99.90;;;;;;4236852;28;20047;-85
2022/11/19 07:36:25;;;;;;;;;;;9.10;99.90;;;;;;4245576;28;20418;-85
2022/11/19 07:38:46;;;;;;;12.20;8.40;;;9.10;99.90;;;;;;4249620;28;19923;-84
2022/11/19 07:43:45;;;;;;;13.20;8.00;;;9.10;99.90;;;;;;4228598;28;20055;-84
2022/11/19 07:46:06;;;;;;;18.95;11.95;;;9.20;99.90;;;;;;4233032;28;20405;-84
2022/11/19 07:48:25;;;;;;;20.73;8.02;;;9.20;99.90;;;;;;4245994;28;20062;-84
2022/11/19 07:50:50;;;;;;;16.92;9.35;;;9.20;99.90;;;;;;4235307;28;20072;-84
2022/11/19 07:53:15;;;;;;;9.07;8.23;;;9.20;99.90;;;;;;4237557;28;20042;-84
2022/11/19 07:55:36;;;;;;;12.77;7.18;;;9.30;99.90;;;;;;4245529;28;20055;-84
2022/11/19 07:57:56;;;;;;;10.75;7.97;;;9.20;99.90;;;;;;4246454;28;20042;-85
2022/11/19 08:00:16;;;;;;;11.63;6.68;;;9.30;99.90;;;;;;4253247;27;20046;-85
2022/11/19 08:02:36;;;;;;;12.05;9.50;;;9.30;99.90;;;;;;4244084;28;20050;-84
2022/11/19 08:04:56;;;;;;;9.70;8.90;;;9.30;99.90;;;;;;4250661;28;20088;-84
2022/11/19 08:07:16;;;;;;;10.55;8.25;;;9.20;99.90;;;;;;4247286;28;20081;-85
2022/11/19 08:09:36;;;;;;;17.58;11.07;;;9.30;99.90;;;;;;4234547;28;20239;-84
2022/11/19 08:11:55;;;;;;;10.18;9.38;;;9.30;99.90;;;;;;4250488;28;20235;-84
2022/11/19 08:14:15;;;;;;;8.85;8.20;;;9.30;99.90;;;;;;4228081;28;20412;-84
2022/11/19 08:19:15;;;;;;;11.35;10.43;;;9.30;99.90;;;;;;4252056;28;20056;-84
2022/11/19 08:21:38;;;;;;;;;;;9.30;99.90;;;;;;4236359;28;20094;-84
2022/11/19 08:23:58;;;;;;;16.98;15.23;;;9.30;99.90;;;;;;4245281;28;19922;-84
2022/11/19 08:26:17;;;;;;;17.52;15.82;;;9.40;99.90;;;;;;4249564;27;20057;-84
2022/11/19 08:28:37;;;;;;;16.92;12.02;;;9.30;99.90;;;;;;4246147;28;20042;-84
2022/11/19 08:31:08;;;;;;;12.20;10.57;;;9.40;99.90;;;;;;4233859;28;20102;-84
2022/11/19 08:33:27;;;;;;;10.50;9.48;;;9.40;99.90;;;;;;4237150;28;20076;-84
2022/11/19 08:35:47;;;;;;;12.32;10.55;;;9.50;99.90;;;;;;4235319;28;20051;-85
2022/11/19 08:38:08;;;;;;;11.15;10.15;;;9.50;99.90;;;;;;4245622;28;20078;-84
2022/11/19 08:40:27;;;;;;;11.70;8.65;;;9.50;99.90;;;;;;4250195;28;20046;-84
2022/11/19 08:43:00;;;;;;;13.05;11.55;;;9.50;99.90;;;;;;4244939;28;20395;-85
2022/11/19 08:45:21;;;;;;;11.52;10.52;;;9.40;99.90;;;;;;4239354;28;20119;-84
2022/11/19 08:47:41;;;;;;;13.88;9.40;;;9.50;99.90;;;;;;4246112;28;20046;-84
2022/11/19 08:50:01;;;;;;;8.77;8.18;;;9.50;99.90;;;;;;4246086;28;20099;-84
2022/11/19 08:52:21;;;;;;;7.43;6.85;;;9.50;99.90;;;;;;4244483;28;20043;-84
2022/11/19 08:54:41;;;;;;;6.95;6.32;;;9.50;99.90;;;;;;4247685;28;20088;-85
2022/11/19 08:57:00;;;;;;;8.85;8.02;;;9.50;99.90;;;;;;4248431;28;20058;-84
2022/11/19 08:59:20;;;;;;;6.85;6.25;;;9.50;99.90;;;;;;4246930;28;20079;-84
2022/11/19 09:01:41;;;;;;;5.90;4.95;;;9.60;99.90;;;;;;4247122;28;20081;-84
2022/11/19 09:04:00;;;;;;;6.15;5.75;;;9.60;99.90;;;;;;4249606;28;20051;-83
2022/11/19 09:06:20;;;;;;;5.00;4.70;;;9.60;99.90;;;;;;4250724;28;20092;-85
2022/11/19 09:08:40;;;;;;;5.53;5.13;;;9.60;99.90;;;;;;4243455;28;20035;-84
2022/11/19 09:11:09;;;;;;;7.68;6.95;;;9.60;99.90;;;;;;4239383;28;20086;-83
2022/11/19 09:13:29;;;;;;;5.13;4.70;;;9.70;99.90;;;;;;4241612;28;20039;-84
2022/11/19 09:15:50;;;;;;;5.72;5.30;;;9.80;99.90;;;;;;4246149;28;20077;-84
2022/11/19 09:18:10;;;;;;;4.93;4.53;;;9.90;99.90;;;;;;4243499;28;20043;-84
2022/11/19 09:20:29;;;;;;;4.30;4.10;;;9.90;99.90;;;;;;4248525;28;20050;-83
2022/11/19 09:22:50;;;;;;;7.70;5.18;;;10.00;99.90;;;;;;4239907;28;20038;-83
2022/11/19 09:25:10;;;;;;;10.23;5.05;;;9.90;99.90;;;;;;4246438;28;20088;-84
2022/11/19 09:27:29;;;;;;;5.85;5.60;;;9.90;99.90;;;;;;4239766;28;20074;-84
2022/11/19 09:29:49;;;;;;;11.68;6.55;;;9.90;99.90;;;;;;4241522;28;20054;-84
2022/11/19 09:32:09;;;;;;;5.10;4.88;;;10.00;99.90;;;;;;4247118;28;20038;-84
2022/11/19 09:34:29;;;;;;;5.10;4.80;;;10.00;99.90;;;;;;4231854;28;20117;-84
2022/11/19 09:36:50;;;;;;;6.05;5.13;;;10.00;99.90;;;;;;4244625;28;20301;-83
2022/11/19 09:39:10;;;;;;;8.43;6.75;;;10.00;99.90;;;;;;4247836;28;20101;-85
2022/11/19 09:42:00;;;;;;;4.93;4.55;;;10.00;99.90;;;;;;4241715;28;20088;-85
2022/11/19 09:44:32;;;;;;;4.68;4.38;;;10.00;99.90;;;;;;4246857;28;20049;-85
2022/11/19 09:47:16;;;;;;;3.45;3.35;;;10.00;99.90;;;;;;4242288;28;20046;-86
2022/11/19 09:49:44;;;;;;;8.27;4.63;;;10.00;99.90;;;;;;4238942;28;20039;-86
2022/11/19 09:52:09;;;;;;;4.18;4.07;;;10.10;99.90;;;;;;4232963;28;20047;-85
2022/11/19 09:54:29;;;;;;;3.53;3.25;;;10.10;99.90;;;;;;4244128;28;20038;-86
2022/11/19 09:56:53;;;;;;;4.50;4.28;;;10.10;99.90;;;;;;4245273;28;20093;-85
2022/11/19 09:59:26;;;;;;;6.32;3.88;;;10.10;99.90;;;;;;4245722;28;20083;-86
2022/11/19 10:01:46;;;;;;;5.75;4.93;;;10.10;99.90;;;;;;4247939;28;20035;-83
2022/11/19 10:04:09;;;;;;;4.72;4.53;;;10.10;99.90;;;;;;4244614;28;20051;-82
2022/11/19 10:06:44;;;;;;;6.03;5.28;;;10.10;99.90;;;;;;4245021;28;20066;-82
2022/11/19 10:09:34;;;;;;;6.00;5.45;;;10.10;99.90;;;;;;4248311;28;20039;-82
2022/11/19 10:12:24;;;;;;;4.10;3.90;;;10.10;99.90;;;;;;4243910;28;20058;-82
2022/11/19 10:14:50;;;;;;;5.50;5.20;;;10.10;99.90;;;;;;4245724;28;20055;-82
2022/11/19 10:17:14;;;;;;;6.05;5.55;;;10.10;99.90;;;;;;4247728;28;20264;-82
2022/11/19 10:20:04;;;;;;;4.40;4.00;;;10.10;99.90;;;;;;4246210;28;20230;-82
2022/11/19 10:22:32;;;;;;;3.97;3.75;;;10.10;99.90;;;;;;4240979;28;20143;-83
2022/11/19 10:25:02;;;;;;;3.78;3.47;;;10.10;99.90;;;;;;4247065;28;20038;-83
2022/11/19 10:27:30;;;;;;;6.15;5.65;;;10.20;99.90;;;;;;4238271;28;20050;-82
2022/11/19 10:29:55;;;;;;;3.70;3.50;;;10.20;99.90;;;;;;4244318;28;20043;-83
2022/11/19 10:32:37;;;;;;;6.22;4.25;;;10.20;99.90;;;;;;4249924;28;20038;-83
2022/11/19 10:35:06;;;;;;;6.97;4.83;;;10.20;99.90;;;;;;4246730;28;20062;-83
2022/11/19 10:37:33;;;;;;;5.50;5.07;;;10.20;99.90;;;;;;4234521;28;20267;-83
2022/11/19 10:40:17;;;;;;;16.58;6.40;;;10.20;99.90;;;;;;4248436;28;20038;-82
2022/11/19 10:42:41;;;;;;;6.43;6.07;;;10.20;99.90;;;;;;4251276;28;20042;-83
2022/11/19 10:45:03;;;;;;;;;;;10.20;99.90;;;;;;4232782;28;20423;-83
2022/11/19 10:47:40;;;;;;;5.27;4.77;;;10.10;99.90;;;;;;4245923;28;19930;-84
2022/11/19 10:50:00;;;;;;;5.82;5.40;;;10.20;99.90;;;;;;4247546;28;20047;-83
2022/11/19 10:52:30;;;;;;;7.82;7.28;;;10.20;99.90;;;;;;4244905;28;20061;-83
2022/11/19 10:54:54;;;;;;;9.52;8.98;;;10.20;99.90;;;;;;4248085;28;20119;-83
2022/11/19 10:57:17;;;;;;;16.33;11.00;;;10.20;99.90;;;;;;4236840;28;20035;-83
2022/11/19 10:59:39;;;;;;;;;;;10.20;99.90;;;;;;4247347;28;20069;-83
2022/11/19 11:02:15;;;;;;;10.02;9.23;;;10.20;99.90;;;;;;4245330;28;19954;-83
2022/11/19 11:05:06;;;;;;;14.25;8.38;;;10.10;99.90;;;;;;4222801;28;20065;-83
2022/11/19 11:07:51;;;;;;;12.25;11.32;;;10.00;99.90;;;;;;4249424;28;20096;-83
2022/11/19 11:10:29;;;;;;;11.73;10.75;;;10.00;99.90;;;;;;4235001;28;20054;-83
2022/11/19 11:15:27;;;;;;;9.20;8.60;;;10.10;99.90;;;;;;4249189;28;20046;-83
2022/11/19 11:17:59;;;;;;;8.23;7.82;;;10.10;99.90;;;;;;4233192;28;20120;-82
2022/11/19 11:20:27;;;;;;;8.45;8.05;;;10.00;99.90;;;;;;4230374;28;20043;-83
2022/11/19 11:23:02;;;;;;;8.55;7.90;;;10.00;99.90;;;;;;4242786;28;20035;-81
2022/11/19 11:25:26;;;;;;;6.03;5.60;;;10.10;99.90;;;;;;4247949;28;20070;-81
2022/11/19 11:27:46;;;;;;;7.30;7.00;;;9.90;99.90;;;;;;4244437;28;20077;-82
2022/11/19 11:30:12;;;;;;;7.38;6.68;;;9.90;99.90;;;;;;4236987;28;20041;-82
2022/11/19 11:32:32;;;;;;;6.40;6.00;;;9.80;99.90;;;;;;4245585;28;20058;-82
2022/11/19 11:34:52;;;;;;;6.53;6.22;;;10.00;99.90;;;;;;4248668;28;20043;-82
2022/11/19 11:37:12;;;;;;;6.40;6.05;;;10.10;99.90;;;;;;4247087;28;20038;-82
2022/11/19 11:39:43;;;;;;;16.05;14.57;;;10.20;99.90;;;;;;4248305;28;20050;-82
2022/11/19 11:42:04;;;;;;;9.10;8.70;;;10.30;99.90;;;;;;4252198;28;20057;-82
2022/11/19 11:44:29;;;;;;;7.97;7.47;;;10.30;99.90;;;;;;4250556;28;20053;-82
2022/11/19 11:47:04;;;;;;;5.70;5.20;;;10.20;99.90;;;;;;4243756;28;20085;-82
2022/11/19 11:49:28;;;;;;;6.40;6.13;;;10.10;99.90;;;;;;4247412;28;20047;-82
2022/11/19 11:52:00;;;;;;;6.72;5.85;;;10.20;99.90;;;;;;4251166;28;20042;-82
2022/11/19 11:54:20;;;;;;;9.20;8.38;;;10.40;99.90;;;;;;4236327;28;20046;-82
2022/11/19 11:56:40;;;;;;;11.60;10.63;;;10.50;99.90;;;;;;4244018;28;20080;-82
2022/11/19 11:59:26;;;;;;;11.30;10.30;;;10.50;99.90;;;;;;4249484;28;20039;-82
2022/11/19 12:02:00;;;;;;;14.13;10.10;;;10.50;99.90;;;;;;4249830;28;20079;-82
2022/11/19 12:04:21;;;;;;;19.70;16.20;;;10.70;99.90;;;;;;4243215;28;20034;-82
2022/11/19 12:06:52;;;;;;;73.80;58.15;;;10.60;99.90;;;;;;4246980;28;20088;-82
2022/11/19 12:09:27;;;;;;;63.75;49.28;;;10.60;99.90;;;;;;4247029;28;20117;-82
2022/11/19 12:12:00;;;;;;;28.85;25.70;;;10.50;99.90;;;;;;4251044;28;20106;-82
2022/11/19 12:14:40;;;;;;;16.20;14.13;;;10.60;99.90;;;;;;4251596;28;20372;-83
2022/11/19 12:17:05;;;;;;;12.95;12.05;;;10.50;99.90;;;;;;4243289;28;20042;-83
2022/11/19 12:19:40;;;;;;;12.45;11.15;;;10.50;99.90;;;;;;4240251;28;20403;-82
2022/11/19 12:22:19;;;;;;;13.13;11.95;;;10.50;99.90;;;;;;4241618;28;20058;-82
2022/11/19 12:24:54;;;;;;;23.38;21.05;;;10.40;99.90;;;;;;4248395;28;20127;-82
2022/11/19 12:27:32;;;;;;;19.77;17.48;;;10.40;99.90;;;;;;4238609;28;20101;-82
2022/11/19 12:30:09;;;;;;;19.88;18.13;;;10.50;99.90;;;;;;4249092;28;20068;-83
2022/11/19 12:32:29;;;;;;;23.23;19.33;;;10.50;99.90;;;;;;4245105;28;20080;-82
2022/11/19 12:35:25;;;;;;;14.70;13.52;;;10.50;99.90;;;;;;4246204;28;20381;-82
2022/11/19 12:38:22;;;;;;;16.08;14.70;;;10.40;99.90;;;;;;4239176;28;20077;-83
2022/11/19 12:40:42;;;;;;;25.55;22.85;;;10.50;99.90;;;;;;4249718;28;20066;-82
2022/11/19 12:43:26;;;;;;;14.68;13.30;;;10.50;99.90;;;;;;4250403;28;20042;-83
2022/11/19 12:45:52;;;;;;;14.63;13.52;;;10.40;99.90;;;;;;4249534;28;20046;-83
2022/11/19 12:48:30;;;;;;;16.33;14.65;;;10.40;99.90;;;;;;4235987;28;20077;-83